Terminal Aerodrome Forecast
Issued by NWS Wilmington, OH

Current Version | Previous Version | Graphics & Text | Print | Product List | Glossary On
Versions: 1 2 3 4 5 6 7 8 9 10 11 12 13 14 15 16 17
000
FTUS41 KILN 161500 AAB
TAFCMH
TAF AMD
KCMH 161526Z 1615/1712 23012KT P6SM -SHRA OVC012
     FM161700 25014G24KT P6SM -SHRA OVC012
     FM162200 26014G24KT P6SM VCSH OVC012
     FM170600 27013KT P6SM OVC015=

USA.gov is the U.S. government's official web portal to all federal, state and local government web resources and services.